sensor_id;sensor_type;location;lat;lon;timestamp;P1;durP1;ratioP1;P2;durP2;ratioP2
1276;SDS011;631;51.024;13.826;2023-11-18T00:00:07;14.83;;;13.93;;
1276;SDS011;631;51.024;13.826;2023-11-18T00:02:37;15.20;;;14.30;;
1276;SDS011;631;51.024;13.826;2023-11-18T00:05:03;15.03;;;14.03;;
1276;SDS011;631;51.024;13.826;2023-11-18T00:07:32;15.02;;;14.02;;
1276;SDS011;631;51.024;13.826;2023-11-18T00:09:58;14.77;;;13.97;;
1276;SDS011;631;51.024;13.826;2023-11-18T00:12:23;14.63;;;13.73;;
1276;SDS011;631;51.024;13.826;2023-11-18T00:14:49;14.57;;;13.77;;
1276;SDS011;631;51.024;13.826;2023-11-18T00:17:15;15.43;;;14.33;;
1276;SDS011;631;51.024;13.826;2023-11-18T00:19:41;13.80;;;12.90;;
1276;SDS011;631;51.024;13.826;2023-11-18T00:22:09;14.40;;;13.50;;
1276;SDS011;631;51.024;13.826;2023-11-18T00:24:36;14.85;;;14.02;;
1276;SDS011;631;51.024;13.826;2023-11-18T00:27:03;14.95;;;13.95;;
1276;SDS011;631;51.024;13.826;2023-11-18T00:29:34;15.07;;;14.18;;
1276;SDS011;631;51.024;13.826;2023-11-18T00:32:03;15.20;;;14.23;;
1276;SDS011;631;51.024;13.826;2023-11-18T00:34:29;14.60;;;13.75;;
1276;SDS011;631;51.024;13.826;2023-11-18T00:36:57;14.13;;;13.33;;
1276;SDS011;631;51.024;13.826;2023-11-18T00:39:23;14.57;;;13.68;;
1276;SDS011;631;51.024;13.826;2023-11-18T00:41:49;13.73;;;12.95;;
1276;SDS011;631;51.024;13.826;2023-11-18T00:44:15;14.30;;;13.40;;
1276;SDS011;631;51.024;13.826;2023-11-18T00:46:41;14.30;;;13.40;;
1276;SDS011;631;51.024;13.826;2023-11-18T00:49:07;13.70;;;13.00;;
1276;SDS011;631;51.024;13.826;2023-11-18T00:51:32;13.40;;;12.60;;
1276;SDS011;631;51.024;13.826;2023-11-18T00:53:58;13.90;;;13.00;;
1276;SDS011;631;51.024;13.826;2023-11-18T00:56:26;14.07;;;13.27;;
1276;SDS011;631;51.024;13.826;2023-11-18T00:58:53;14.10;;;13.20;;
1276;SDS011;631;51.024;13.826;2023-11-18T01:01:19;14.57;;;13.60;;
1276;SDS011;631;51.024;13.826;2023-11-18T01:03:46;13.63;;;12.82;;
1276;SDS011;631;51.024;13.826;2023-11-18T01:06:12;13.98;;;13.07;;
1276;SDS011;631;51.024;13.826;2023-11-18T01:08:40;14.35;;;13.45;;
1276;SDS011;631;51.024;13.826;2023-11-18T01:11:09;14.70;;;13.80;;
1276;SDS011;631;51.024;13.826;2023-11-18T01:13:35;15.37;;;14.37;;
1276;SDS011;631;51.024;13.826;2023-11-18T01:16:00;15.13;;;14.17;;
1276;SDS011;631;51.024;13.826;2023-11-18T01:18:27;14.60;;;13.80;;
1276;SDS011;631;51.024;13.826;2023-11-18T01:20:53;15.30;;;14.30;;
1276;SDS011;631;51.024;13.826;2023-11-18T01:23:19;15.47;;;14.43;;
1276;SDS011;631;51.024;13.826;2023-11-18T01:25:44;14.50;;;13.40;;
1276;SDS011;631;51.024;13.826;2023-11-18T01:28:10;14.13;;;13.23;;
1276;SDS011;631;51.024;13.826;2023-11-18T01:30:35;14.10;;;13.30;;
1276;SDS011;631;51.024;13.826;2023-11-18T01:33:01;14.47;;;13.50;;
1276;SDS011;631;51.024;13.826;2023-11-18T01:35:27;13.60;;;12.80;;
1276;SDS011;631;51.024;13.826;2023-11-18T01:37:53;15.00;;;13.90;;
1276;SDS011;631;51.024;13.826;2023-11-18T01:40:22;14.13;;;13.23;;
1276;SDS011;631;51.024;13.826;2023-11-18T01:42:48;13.52;;;12.70;;
1276;SDS011;631;51.024;13.826;2023-11-18T01:45:14;13.73;;;12.90;;
1276;SDS011;631;51.024;13.826;2023-11-18T01:47:44;13.93;;;13.23;;
1276;SDS011;631;51.024;13.826;2023-11-18T01:50:13;13.73;;;12.98;;
1276;SDS011;631;51.024;13.826;2023-11-18T01:52:39;13.48;;;12.68;;
1276;SDS011;631;51.024;13.826;2023-11-18T01:55:06;13.48;;;12.77;;
1276;SDS011;631;51.024;13.826;2023-11-18T01:57:33;13.60;;;12.80;;
1276;SDS011;631;51.024;13.826;2023-11-18T01:59:59;14.10;;;13.30;;
1276;SDS011;631;51.024;13.826;2023-11-18T02:02:25;13.32;;;12.63;;
1276;SDS011;631;51.024;13.826;2023-11-18T02:04:51;13.90;;;13.17;;
1276;SDS011;631;51.024;13.826;2023-11-18T02:07:17;13.55;;;12.75;;
1276;SDS011;631;51.024;13.826;2023-11-18T02:09:43;14.00;;;13.20;;
1276;SDS011;631;51.024;13.826;2023-11-18T02:14:39;13.52;;;12.73;;
1276;SDS011;631;51.024;13.826;2023-11-18T02:17:05;13.57;;;12.77;;
1276;SDS011;631;51.024;13.826;2023-11-18T02:19:34;13.57;;;12.88;;
1276;SDS011;631;51.024;13.826;2023-11-18T02:22:00;13.63;;;12.82;;
1276;SDS011;631;51.024;13.826;2023-11-18T02:24:27;14.00;;;13.20;;
1276;SDS011;631;51.024;13.826;2023-11-18T02:27:01;14.07;;;13.18;;
1276;SDS011;631;51.024;13.826;2023-11-18T02:29:32;14.10;;;13.20;;
1276;SDS011;631;51.024;13.826;2023-11-18T02:32:20;12.70;;;12.00;;
1276;SDS011;631;51.024;13.826;2023-11-18T02:37:56;13.40;;;12.60;;
1276;SDS011;631;51.024;13.826;2023-11-18T02:40:32;13.65;;;12.88;;
1276;SDS011;631;51.024;13.826;2023-11-18T02:43:00;14.75;;;13.85;;
1276;SDS011;631;51.024;13.826;2023-11-18T02:45:30;14.13;;;13.27;;
1276;SDS011;631;51.024;13.826;2023-11-18T02:47:57;13.75;;;12.85;;
1276;SDS011;631;51.024;13.826;2023-11-18T02:50:26;13.77;;;13.00;;
1276;SDS011;631;51.024;13.826;2023-11-18T02:52:52;14.10;;;13.30;;
1276;SDS011;631;51.024;13.826;2023-11-18T02:55:18;13.50;;;12.70;;
1276;SDS011;631;51.024;13.826;2023-11-18T02:57:46;14.13;;;13.23;;
1276;SDS011;631;51.024;13.826;2023-11-18T03:00:12;13.80;;;13.00;;
1276;SDS011;631;51.024;13.826;2023-11-18T03:02:44;14.48;;;13.57;;
1276;SDS011;631;51.024;13.826;2023-11-18T03:05:12;13.60;;;12.70;;
1276;SDS011;631;51.024;13.826;2023-11-18T03:07:38;14.20;;;13.30;;
1276;SDS011;631;51.024;13.826;2023-11-18T03:10:04;14.20;;;13.40;;
1276;SDS011;631;51.024;13.826;2023-11-18T03:12:35;14.55;;;13.55;;
1276;SDS011;631;51.024;13.826;2023-11-18T03:15:03;14.18;;;13.30;;
1276;SDS011;631;51.024;13.826;2023-11-18T03:17:34;14.25;;;13.35;;
1276;SDS011;631;51.024;13.826;2023-11-18T03:20:00;14.30;;;13.40;;
1276;SDS011;631;51.024;13.826;2023-11-18T03:22:25;14.00;;;13.20;;
1276;SDS011;631;51.024;13.826;2023-11-18T03:24:51;14.53;;;13.57;;
1276;SDS011;631;51.024;13.826;2023-11-18T03:27:17;14.23;;;13.23;;
1276;SDS011;631;51.024;13.826;2023-11-18T03:29:43;14.40;;;13.40;;
1276;SDS011;631;51.024;13.826;2023-11-18T03:32:11;13.60;;;12.80;;
1276;SDS011;631;51.024;13.826;2023-11-18T03:34:37;14.25;;;13.45;;
1276;SDS011;631;51.024;13.826;2023-11-18T03:37:03;14.40;;;13.50;;
1276;SDS011;631;51.024;13.826;2023-11-18T03:39:29;13.70;;;12.90;;
1276;SDS011;631;51.024;13.826;2023-11-18T03:41:55;13.93;;;13.10;;
1276;SDS011;631;51.024;13.826;2023-11-18T03:44:22;14.65;;;13.75;;
1276;SDS011;631;51.024;13.826;2023-11-18T03:46:49;14.25;;;13.35;;
1276;SDS011;631;51.024;13.826;2023-11-18T03:49:14;14.33;;;13.33;;
1276;SDS011;631;51.024;13.826;2023-11-18T03:51:40;14.33;;;13.43;;
1276;SDS011;631;51.024;13.826;2023-11-18T03:54:06;14.60;;;13.53;;
1276;SDS011;631;51.024;13.826;2023-11-18T03:56:33;14.70;;;13.75;;
1276;SDS011;631;51.024;13.826;2023-11-18T03:58:59;14.37;;;13.47;;
1276;SDS011;631;51.024;13.826;2023-11-18T04:01:25;14.43;;;13.43;;
1276;SDS011;631;51.024;13.826;2023-11-18T04:03:54;14.10;;;13.20;;
1276;SDS011;631;51.024;13.826;2023-11-18T04:06:20;15.97;;;14.67;;
1276;SDS011;631;51.024;13.826;2023-11-18T04:08:47;15.00;;;14.00;;
1276;SDS011;631;51.024;13.826;2023-11-18T04:11:13;14.13;;;13.27;;
1276;SDS011;631;51.024;13.826;2023-11-18T04:13:43;14.27;;;13.30;;
1276;SDS011;631;51.024;13.826;2023-11-18T04:18:41;14.43;;;13.43;;
1276;SDS011;631;51.024;13.826;2023-11-18T04:21:11;14.88;;;13.85;;
1276;SDS011;631;51.024;13.826;2023-11-18T04:23:38;14.85;;;13.93;;
1276;SDS011;631;51.024;13.826;2023-11-18T04:26:05;14.98;;;13.98;;
1276;SDS011;631;51.024;13.826;2023-11-18T04:28:32;13.60;;;12.70;;
1276;SDS011;631;51.024;13.826;2023-11-18T04:30:59;15.15;;;14.05;;
1276;SDS011;631;51.024;13.826;2023-11-18T04:33:25;14.60;;;13.60;;
1276;SDS011;631;51.024;13.826;2023-11-18T04:35:51;13.90;;;13.00;;
1276;SDS011;631;51.024;13.826;2023-11-18T04:38:18;14.95;;;13.95;;
1276;SDS011;631;51.024;13.826;2023-11-18T04:40:44;14.25;;;13.30;;
1276;SDS011;631;51.024;13.826;2023-11-18T04:43:11;14.60;;;13.70;;
1276;SDS011;631;51.024;13.826;2023-11-18T04:45:37;14.45;;;13.55;;
1276;SDS011;631;51.024;13.826;2023-11-18T04:48:04;13.82;;;12.93;;
1276;SDS011;631;51.024;13.826;2023-11-18T04:50:30;14.35;;;13.38;;
1276;SDS011;631;51.024;13.826;2023-11-18T04:52:57;14.95;;;13.85;;
1276;SDS011;631;51.024;13.826;2023-11-18T04:55:23;13.90;;;12.97;;
1276;SDS011;631;51.024;13.826;2023-11-18T04:57:51;14.18;;;13.25;;
1276;SDS011;631;51.024;13.826;2023-11-18T05:00:20;13.55;;;12.75;;
1276;SDS011;631;51.024;13.826;2023-11-18T05:02:46;14.98;;;13.90;;
1276;SDS011;631;51.024;13.826;2023-11-18T05:05:12;14.80;;;13.77;;
1276;SDS011;631;51.024;13.826;2023-11-18T05:07:41;14.70;;;13.70;;
1276;SDS011;631;51.024;13.826;2023-11-18T05:10:07;13.85;;;12.95;;
1276;SDS011;631;51.024;13.826;2023-11-18T05:12:37;14.60;;;13.30;;
1276;SDS011;631;51.024;13.826;2023-11-18T05:15:03;14.25;;;13.35;;
1276;SDS011;631;51.024;13.826;2023-11-18T05:17:30;14.50;;;13.52;;
1276;SDS011;631;51.024;13.826;2023-11-18T05:19:56;13.90;;;13.00;;
1276;SDS011;631;51.024;13.826;2023-11-18T05:22:21;13.83;;;12.93;;
1276;SDS011;631;51.024;13.826;2023-11-18T05:24:47;14.30;;;13.40;;
1276;SDS011;631;51.024;13.826;2023-11-18T05:27:13;14.20;;;13.20;;
1276;SDS011;631;51.024;13.826;2023-11-18T05:29:39;13.90;;;12.82;;
1276;SDS011;631;51.024;13.826;2023-11-18T05:32:06;14.55;;;13.50;;
1276;SDS011;631;51.024;13.826;2023-11-18T05:34:32;13.35;;;12.55;;
1276;SDS011;631;51.024;13.826;2023-11-18T05:37:00;14.18;;;13.27;;
1276;SDS011;631;51.024;13.826;2023-11-18T05:39:26;13.70;;;12.90;;
1276;SDS011;631;51.024;13.826;2023-11-18T05:41:55;14.00;;;13.10;;
1276;SDS011;631;51.024;13.826;2023-11-18T05:44:21;14.45;;;13.45;;
1276;SDS011;631;51.024;13.826;2023-11-18T05:46:55;14.32;;;13.38;;
1276;SDS011;631;51.024;13.826;2023-11-18T05:49:22;14.00;;;13.20;;
1276;SDS011;631;51.024;13.826;2023-11-18T05:51:49;13.73;;;12.80;;
1276;SDS011;631;51.024;13.826;2023-11-18T05:54:15;14.20;;;13.20;;
1276;SDS011;631;51.024;13.826;2023-11-18T05:56:40;14.53;;;13.57;;
1276;SDS011;631;51.024;13.826;2023-11-18T05:59:06;14.57;;;13.67;;
1276;SDS011;631;51.024;13.826;2023-11-18T06:01:33;15.57;;;14.38;;
1276;SDS011;631;51.024;13.826;2023-11-18T06:03:59;15.57;;;14.57;;
1276;SDS011;631;51.024;13.826;2023-11-18T06:06:25;14.30;;;13.27;;
1276;SDS011;631;51.024;13.826;2023-11-18T06:08:52;14.45;;;13.45;;
1276;SDS011;631;51.024;13.826;2023-11-18T06:11:18;14.07;;;13.13;;
1276;SDS011;631;51.024;13.826;2023-11-18T06:13:48;15.43;;;14.35;;
1276;SDS011;631;51.024;13.826;2023-11-18T06:16:16;14.90;;;13.93;;
1276;SDS011;631;51.024;13.826;2023-11-18T06:18:45;15.55;;;14.45;;
1276;SDS011;631;51.024;13.826;2023-11-18T06:21:12;15.10;;;14.10;;
1276;SDS011;631;51.024;13.826;2023-11-18T06:23:45;14.57;;;13.63;;
1276;SDS011;631;51.024;13.826;2023-11-18T06:26:12;14.98;;;14.00;;
1276;SDS011;631;51.024;13.826;2023-11-18T06:28:39;15.07;;;14.15;;
1276;SDS011;631;51.024;13.826;2023-11-18T06:31:06;15.55;;;14.40;;
1276;SDS011;631;51.024;13.826;2023-11-18T06:33:43;14.93;;;13.93;;
1276;SDS011;631;51.024;13.826;2023-11-18T06:38:39;14.93;;;13.77;;
1276;SDS011;631;51.024;13.826;2023-11-18T06:41:05;14.75;;;13.75;;
1276;SDS011;631;51.024;13.826;2023-11-18T06:43:35;14.52;;;13.52;;
1276;SDS011;631;51.024;13.826;2023-11-18T06:46:16;15.52;;;14.20;;
1276;SDS011;631;51.024;13.826;2023-11-18T06:48:52;15.55;;;14.35;;
1276;SDS011;631;51.024;13.826;2023-11-18T06:51:19;14.82;;;13.82;;
1276;SDS011;631;51.024;13.826;2023-11-18T06:53:56;13.95;;;13.10;;
1276;SDS011;631;51.024;13.826;2023-11-18T06:56:25;15.05;;;14.00;;
1276;SDS011;631;51.024;13.826;2023-11-18T06:58:52;14.73;;;13.70;;
1276;SDS011;631;51.024;13.826;2023-11-18T07:01:21;14.18;;;13.18;;
1276;SDS011;631;51.024;13.826;2023-11-18T07:03:47;14.23;;;13.13;;
1276;SDS011;631;51.024;13.826;2023-11-18T07:06:17;13.85;;;12.95;;
1276;SDS011;631;51.024;13.826;2023-11-18T07:08:51;14.00;;;12.90;;
1276;SDS011;631;51.024;13.826;2023-11-18T07:11:18;14.02;;;13.02;;
1276;SDS011;631;51.024;13.826;2023-11-18T07:13:45;14.35;;;13.45;;
1276;SDS011;631;51.024;13.826;2023-11-18T07:16:12;18.10;;;16.75;;
1276;SDS011;631;51.024;13.826;2023-11-18T07:18:39;14.90;;;13.80;;
1276;SDS011;631;51.024;13.826;2023-11-18T07:21:07;16.67;;;15.38;;
1276;SDS011;631;51.024;13.826;2023-11-18T07:23:34;14.70;;;13.68;;
1276;SDS011;631;51.024;13.826;2023-11-18T07:26:01;13.93;;;12.80;;
1276;SDS011;631;51.024;13.826;2023-11-18T07:28:31;14.02;;;13.02;;
1276;SDS011;631;51.024;13.826;2023-11-18T07:30:56;13.30;;;12.50;;
1276;SDS011;631;51.024;13.826;2023-11-18T07:33:23;14.00;;;13.00;;
1276;SDS011;631;51.024;13.826;2023-11-18T07:35:48;13.40;;;12.50;;
1276;SDS011;631;51.024;13.826;2023-11-18T07:38:14;13.53;;;12.63;;
1276;SDS011;631;51.024;13.826;2023-11-18T07:40:40;14.00;;;12.90;;
1276;SDS011;631;51.024;13.826;2023-11-18T07:43:13;14.20;;;13.05;;
1276;SDS011;631;51.024;13.826;2023-11-18T07:45:39;13.80;;;12.80;;
1276;SDS011;631;51.024;13.826;2023-11-18T07:48:05;13.75;;;12.95;;
1276;SDS011;631;51.024;13.826;2023-11-18T07:50:35;14.13;;;13.13;;
1276;SDS011;631;51.024;13.826;2023-11-18T07:53:02;13.82;;;12.93;;
1276;SDS011;631;51.024;13.826;2023-11-18T07:55:28;14.20;;;13.20;;
1276;SDS011;631;51.024;13.826;2023-11-18T07:57:54;13.48;;;12.60;;
1276;SDS011;631;51.024;13.826;2023-11-18T08:00:20;13.85;;;12.85;;
1276;SDS011;631;51.024;13.826;2023-11-18T08:02:48;13.98;;;12.98;;
1276;SDS011;631;51.024;13.826;2023-11-18T08:05:19;14.88;;;13.82;;
1276;SDS011;631;51.024;13.826;2023-11-18T08:07:45;13.20;;;12.30;;
1276;SDS011;631;51.024;13.826;2023-11-18T08:10:10;13.77;;;12.77;;
1276;SDS011;631;51.024;13.826;2023-11-18T08:12:43;13.52;;;12.63;;
1276;SDS011;631;51.024;13.826;2023-11-18T08:15:10;13.50;;;12.50;;
1276;SDS011;631;51.024;13.826;2023-11-18T08:17:35;12.50;;;11.60;;
1276;SDS011;631;51.024;13.826;2023-11-18T08:20:01;14.70;;;13.50;;
1276;SDS011;631;51.024;13.826;2023-11-18T08:22:38;15.07;;;14.07;;
1276;SDS011;631;51.024;13.826;2023-11-18T08:25:09;14.77;;;13.50;;
1276;SDS011;631;51.024;13.826;2023-11-18T08:27:37;13.60;;;12.70;;
1276;SDS011;631;51.024;13.826;2023-11-18T08:30:07;13.60;;;12.70;;
1276;SDS011;631;51.024;13.826;2023-11-18T08:32:37;13.57;;;12.57;;
1276;SDS011;631;51.024;13.826;2023-11-18T08:35:04;13.60;;;12.70;;
1276;SDS011;631;51.024;13.826;2023-11-18T08:37:34;14.07;;;13.13;;
1276;SDS011;631;51.024;13.826;2023-11-18T08:40:02;13.70;;;12.73;;
1276;SDS011;631;51.024;13.826;2023-11-18T08:42:28;14.53;;;13.30;;
1276;SDS011;631;51.024;13.826;2023-11-18T08:44:56;14.33;;;13.20;;
1276;SDS011;631;51.024;13.826;2023-11-18T08:47:24;14.00;;;12.90;;
1276;SDS011;631;51.024;13.826;2023-11-18T08:49:50;13.83;;;12.93;;
1276;SDS011;631;51.024;13.826;2023-11-18T08:52:15;13.87;;;12.97;;
1276;SDS011;631;51.024;13.826;2023-11-18T08:54:42;13.95;;;12.95;;
1276;SDS011;631;51.024;13.826;2023-11-18T08:57:28;14.10;;;12.98;;
1276;SDS011;631;51.024;13.826;2023-11-18T09:00:13;16.25;;;14.95;;
1276;SDS011;631;51.024;13.826;2023-11-18T09:03:00;14.20;;;13.10;;
1276;SDS011;631;51.024;13.826;2023-11-18T09:05:26;13.63;;;12.70;;
1276;SDS011;631;51.024;13.826;2023-11-18T09:07:56;14.18;;;13.20;;
1276;SDS011;631;51.024;13.826;2023-11-18T09:10:23;13.33;;;12.33;;
1276;SDS011;631;51.024;13.826;2023-11-18T09:12:49;12.50;;;11.70;;
1276;SDS011;631;51.024;13.826;2023-11-18T09:15:14;14.10;;;13.20;;
1276;SDS011;631;51.024;13.826;2023-11-18T09:17:47;13.63;;;12.53;;
1276;SDS011;631;51.024;13.826;2023-11-18T09:20:17;13.50;;;12.50;;
1276;SDS011;631;51.024;13.826;2023-11-18T09:22:45;14.57;;;13.57;;
1276;SDS011;631;51.024;13.826;2023-11-18T09:25:11;14.50;;;13.40;;
1276;SDS011;631;51.024;13.826;2023-11-18T09:27:37;13.57;;;12.67;;
1276;SDS011;631;51.024;13.826;2023-11-18T09:30:04;13.77;;;12.77;;
1276;SDS011;631;51.024;13.826;2023-11-18T09:32:39;13.60;;;12.80;;
1276;SDS011;631;51.024;13.826;2023-11-18T09:35:07;13.83;;;12.93;;
1276;SDS011;631;51.024;13.826;2023-11-18T09:37:37;14.33;;;13.13;;
1276;SDS011;631;51.024;13.826;2023-11-18T09:40:08;14.07;;;13.13;;
1276;SDS011;631;51.024;13.826;2023-11-18T09:42:38;14.53;;;13.53;;
1276;SDS011;631;51.024;13.826;2023-11-18T09:45:04;27.40;;;24.63;;
1276;SDS011;631;51.024;13.826;2023-11-18T09:47:38;22.67;;;20.70;;
1276;SDS011;631;51.024;13.826;2023-11-18T09:50:08;15.80;;;14.70;;
1276;SDS011;631;51.024;13.826;2023-11-18T09:52:40;14.23;;;13.23;;
1276;SDS011;631;51.024;13.826;2023-11-18T09:55:19;18.57;;;16.90;;
1276;SDS011;631;51.024;13.826;2023-11-18T09:58:04;15.93;;;14.63;;
1276;SDS011;631;51.024;13.826;2023-11-18T10:00:38;14.90;;;13.90;;
1276;SDS011;631;51.024;13.826;2023-11-18T10:03:06;13.73;;;12.80;;
1276;SDS011;631;51.024;13.826;2023-11-18T10:05:33;14.17;;;13.23;;
1276;SDS011;631;51.024;13.826;2023-11-18T10:08:02;14.23;;;13.33;;
1276;SDS011;631;51.024;13.826;2023-11-18T10:10:30;14.90;;;13.83;;
1276;SDS011;631;51.024;13.826;2023-11-18T10:13:10;14.37;;;13.47;;
1276;SDS011;631;51.024;13.826;2023-11-18T10:15:47;14.13;;;13.23;;
1276;SDS011;631;51.024;13.826;2023-11-18T10:18:17;14.50;;;13.50;;
1276;SDS011;631;51.024;13.826;2023-11-18T10:20:49;14.83;;;13.83;;
1276;SDS011;631;51.024;13.826;2023-11-18T10:23:19;13.97;;;13.07;;
1276;SDS011;631;51.024;13.826;2023-11-18T10:25:52;13.43;;;12.57;;
1276;SDS011;631;51.024;13.826;2023-11-18T10:28:25;14.47;;;13.40;;
1276;SDS011;631;51.024;13.826;2023-11-18T10:30:58;14.33;;;13.27;;
1276;SDS011;631;51.024;13.826;2023-11-18T10:33:31;13.20;;;12.27;;
1276;SDS011;631;51.024;13.826;2023-11-18T10:36:06;13.77;;;12.77;;
1276;SDS011;631;51.024;13.826;2023-11-18T10:38:48;14.23;;;13.23;;
1276;SDS011;631;51.024;13.826;2023-11-18T10:41:15;13.63;;;12.73;;
1276;SDS011;631;51.024;13.826;2023-11-18T10:43:43;14.20;;;13.20;;
1276;SDS011;631;51.024;13.826;2023-11-18T10:46:10;14.40;;;13.40;;
1276;SDS011;631;51.024;13.826;2023-11-18T10:48:49;14.90;;;13.80;;
1276;SDS011;631;51.024;13.826;2023-11-18T10:51:16;14.17;;;13.10;;
1276;SDS011;631;51.024;13.826;2023-11-18T10:53:44;13.70;;;12.80;;
1276;SDS011;631;51.024;13.826;2023-11-18T10:56:21;13.27;;;12.37;;
1276;SDS011;631;51.024;13.826;2023-11-18T10:58:57;14.47;;;13.47;;
1276;SDS011;631;51.024;13.826;2023-11-18T11:01:29;14.13;;;13.13;;
1276;SDS011;631;51.024;13.826;2023-11-18T11:03:59;13.97;;;12.87;;
1276;SDS011;631;51.024;13.826;2023-11-18T11:06:29;13.83;;;12.93;;
1276;SDS011;631;51.024;13.826;2023-11-18T11:08:56;14.90;;;13.80;;
1276;SDS011;631;51.024;13.826;2023-11-18T11:11:35;14.10;;;13.10;;
1276;SDS011;631;51.024;13.826;2023-11-18T11:14:05;13.70;;;12.80;;
1276;SDS011;631;51.024;13.826;2023-11-18T11:16:38;13.37;;;12.50;;
1276;SDS011;631;51.024;13.826;2023-11-18T11:19:15;13.10;;;12.30;;
1276;SDS011;631;51.024;13.826;2023-11-18T11:22:01;13.40;;;12.50;;
1276;SDS011;631;51.024;13.826;2023-11-18T11:24:38;12.83;;;12.10;;
1276;SDS011;631;51.024;13.826;2023-11-18T11:27:34;13.10;;;12.20;;
1276;SDS011;631;51.024;13.826;2023-11-18T11:30:24;12.10;;;11.50;;
1276;SDS011;631;51.024;13.826;2023-11-18T11:35:55;10.80;;;10.30;;
1276;SDS011;631;51.024;13.826;2023-11-18T11:38:24;11.50;;;11.00;;
1276;SDS011;631;51.024;13.826;2023-11-18T11:40:52;11.27;;;10.77;;
1276;SDS011;631;51.024;13.826;2023-11-18T11:43:21;11.13;;;10.63;;
1276;SDS011;631;51.024;13.826;2023-11-18T11:45:48;11.50;;;10.90;;
1276;SDS011;631;51.024;13.826;2023-11-18T11:48:16;10.73;;;10.23;;
1276;SDS011;631;51.024;13.826;2023-11-18T11:53:47;10.80;;;10.30;;
1276;SDS011;631;51.024;13.826;2023-11-18T11:56:18;11.00;;;10.50;;
1276;SDS011;631;51.024;13.826;2023-11-18T11:58:49;10.70;;;10.20;;
1276;SDS011;631;51.024;13.826;2023-11-18T12:01:22;10.80;;;10.30;;
1276;SDS011;631;51.024;13.826;2023-11-18T12:04:02;11.27;;;10.77;;
1276;SDS011;631;51.024;13.826;2023-11-18T12:06:32;11.50;;;10.80;;
1276;SDS011;631;51.024;13.826;2023-11-18T12:09:08;10.90;;;10.40;;
1276;SDS011;631;51.024;13.826;2023-11-18T12:11:37;11.13;;;10.63;;
1276;SDS011;631;51.024;13.826;2023-11-18T12:14:11;10.30;;;9.90;;
1276;SDS011;631;51.024;13.826;2023-11-18T12:16:58;11.57;;;11.07;;
1276;SDS011;631;51.024;13.826;2023-11-18T12:19:46;11.70;;;11.10;;
1276;SDS011;631;51.024;13.826;2023-11-18T12:22:22;11.80;;;11.20;;
1276;SDS011;631;51.024;13.826;2023-11-18T12:33:06;10.73;;;10.23;;
1276;SDS011;631;51.024;13.826;2023-11-18T12:41:10;12.83;;;12.10;;
1276;SDS011;631;51.024;13.826;2023-11-18T12:49:19;12.83;;;12.03;;
1276;SDS011;631;51.024;13.826;2023-11-18T12:51:49;11.70;;;11.00;;
1276;SDS011;631;51.024;13.826;2023-11-18T12:54:24;12.60;;;11.90;;
1276;SDS011;631;51.024;13.826;2023-11-18T12:56:54;12.33;;;11.43;;
1276;SDS011;631;51.024;13.826;2023-11-18T12:59:21;13.03;;;12.30;;
1276;SDS011;631;51.024;13.826;2023-11-18T13:01:46;13.63;;;12.83;;
1276;SDS011;631;51.024;13.826;2023-11-18T13:04:32;14.27;;;13.27;;
1276;SDS011;631;51.024;13.826;2023-11-18T13:07:05;15.10;;;14.10;;
1276;SDS011;631;51.024;13.826;2023-11-18T13:09:33;14.67;;;13.77;;
1276;SDS011;631;51.024;13.826;2023-11-18T13:12:01;13.40;;;12.60;;
1276;SDS011;631;51.024;13.826;2023-11-18T13:14:31;13.30;;;12.60;;
1276;SDS011;631;51.024;13.826;2023-11-18T13:17:04;13.70;;;12.90;;
1276;SDS011;631;51.024;13.826;2023-11-18T13:19:36;12.97;;;12.27;;
1276;SDS011;631;51.024;13.826;2023-11-18T13:22:02;12.00;;;11.30;;
1276;SDS011;631;51.024;13.826;2023-11-18T13:24:39;12.77;;;12.07;;
1276;SDS011;631;51.024;13.826;2023-11-18T13:27:06;11.77;;;11.17;;
1276;SDS011;631;51.024;13.826;2023-11-18T13:29:37;12.40;;;11.80;;
1276;SDS011;631;51.024;13.826;2023-11-18T13:32:06;12.40;;;11.70;;
1276;SDS011;631;51.024;13.826;2023-11-18T13:34:35;11.07;;;10.47;;
1276;SDS011;631;51.024;13.826;2023-11-18T13:37:11;12.70;;;11.90;;
1276;SDS011;631;51.024;13.826;2023-11-18T13:39:42;12.17;;;11.50;;
1276;SDS011;631;51.024;13.826;2023-11-18T13:42:18;13.37;;;12.57;;
1276;SDS011;631;51.024;13.826;2023-11-18T13:44:45;12.60;;;11.90;;
1276;SDS011;631;51.024;13.826;2023-11-18T13:47:12;13.20;;;12.43;;
1276;SDS011;631;51.024;13.826;2023-11-18T13:49:38;14.60;;;13.60;;
1276;SDS011;631;51.024;13.826;2023-11-18T13:52:08;14.00;;;13.20;;
1276;SDS011;631;51.024;13.826;2023-11-18T13:54:39;13.70;;;12.90;;
1276;SDS011;631;51.024;13.826;2023-11-18T13:57:08;13.40;;;12.60;;
1276;SDS011;631;51.024;13.826;2023-11-18T13:59:34;13.73;;;13.03;;
1276;SDS011;631;51.024;13.826;2023-11-18T14:02:00;13.83;;;13.00;;
1276;SDS011;631;51.024;13.826;2023-11-18T14:04:29;13.90;;;13.10;;
1276;SDS011;631;51.024;13.826;2023-11-18T14:06:57;16.20;;;15.20;;
1276;SDS011;631;51.024;13.826;2023-11-18T14:09:25;17.57;;;16.27;;
1276;SDS011;631;51.024;13.826;2023-11-18T14:11:52;14.40;;;13.47;;
1276;SDS011;631;51.024;13.826;2023-11-18T14:14:20;15.40;;;14.40;;
1276;SDS011;631;51.024;13.826;2023-11-18T14:16:46;15.23;;;14.17;;
1276;SDS011;631;51.024;13.826;2023-11-18T14:19:12;14.00;;;13.10;;
1276;SDS011;631;51.024;13.826;2023-11-18T14:21:38;15.27;;;14.27;;
1276;SDS011;631;51.024;13.826;2023-11-18T14:24:05;15.30;;;14.23;;
1276;SDS011;631;51.024;13.826;2023-11-18T14:26:33;14.67;;;13.67;;
1276;SDS011;631;51.024;13.826;2023-11-18T14:28:58;14.70;;;13.80;;
1276;SDS011;631;51.024;13.826;2023-11-18T14:31:25;14.70;;;13.80;;
1276;SDS011;631;51.024;13.826;2023-11-18T14:33:51;15.13;;;14.03;;
1276;SDS011;631;51.024;13.826;2023-11-18T14:36:17;15.03;;;13.93;;
1276;SDS011;631;51.024;13.826;2023-11-18T14:38:44;13.90;;;13.00;;
1276;SDS011;631;51.024;13.826;2023-11-18T14:41:10;14.43;;;13.50;;
1276;SDS011;631;51.024;13.826;2023-11-18T14:43:36;14.60;;;13.70;;
1276;SDS011;631;51.024;13.826;2023-11-18T14:46:02;13.97;;;13.10;;
1276;SDS011;631;51.024;13.826;2023-11-18T14:48:29;13.50;;;12.70;;
1276;SDS011;631;51.024;13.826;2023-11-18T14:50:54;14.73;;;13.73;;
1276;SDS011;631;51.024;13.826;2023-11-18T14:53:22;14.13;;;13.30;;
1276;SDS011;631;51.024;13.826;2023-11-18T14:55:47;15.40;;;14.30;;
1276;SDS011;631;51.024;13.826;2023-11-18T14:58:13;14.00;;;13.10;;
1276;SDS011;631;51.024;13.826;2023-11-18T15:00:39;14.93;;;13.83;;
1276;SDS011;631;51.024;13.826;2023-11-18T15:03:04;14.60;;;13.70;;
1276;SDS011;631;51.024;13.826;2023-11-18T15:05:31;15.23;;;14.13;;
1276;SDS011;631;51.024;13.826;2023-11-18T15:07:57;16.70;;;15.30;;
1276;SDS011;631;51.024;13.826;2023-11-18T15:10:26;15.50;;;14.40;;
1276;SDS011;631;51.024;13.826;2023-11-18T15:12:56;16.40;;;15.25;;
1276;SDS011;631;51.024;13.826;2023-11-18T15:15:26;17.65;;;16.30;;
1276;SDS011;631;51.024;13.826;2023-11-18T15:17:56;16.30;;;15.00;;
1276;SDS011;631;51.024;13.826;2023-11-18T15:20:24;16.60;;;15.32;;
1276;SDS011;631;51.024;13.826;2023-11-18T15:22:50;17.95;;;16.55;;
1276;SDS011;631;51.024;13.826;2023-11-18T15:25:16;16.92;;;15.50;;
1276;SDS011;631;51.024;13.826;2023-11-18T15:27:42;17.70;;;16.30;;
1276;SDS011;631;51.024;13.826;2023-11-18T15:30:10;18.58;;;17.08;;
1276;SDS011;631;51.024;13.826;2023-11-18T15:32:40;18.45;;;16.90;;